Station Historical Data
Daily Summary for September 25, 2017 Units:  Metric    English   Both
« Previous Day
Next Day »
Daily Weekly Monthly Yearly Custom
  High: Low: Average:
Temperature: 32.7 °C 18.1 °C 25.2 °C
Dew Point: 22.1 °C 16.8 °C 19.4 °C
Humidity: 92% 41% 73%
Wind Speed: 11.3km/h 0km/h 1.4km/h
Wind Gust: 16.1km/h - -
Wind- - ESE
Pressure: 1018.8 hPa 1014.8 hPa -
Precipitation: 0 mm    
Historical Graphs
 
 
Tabular Data for September 25, 2017
Time Temperature Dew Point Pressure Wind Wind Speed Wind Gust Humidity Rainfall Rate (Hourly)
00:04 21.6 °C 19.2 °C 1018.2 hPa Calm     86% 0 mm
00:09 21.5 °C 19.1 °C 1018.2 hPa Calm     86% 0 mm
00:14 21.4 °C 18.9 °C 1018.2 hPa Calm     86% 0 mm
00:19 21.3 °C 19.1 °C 1018.2 hPa Calm     87% 0 mm
00:24 21.3 °C 19 °C 1018.2 hPa Calm     87% 0 mm
00:29 21.2 °C 18.9 °C 1018.2 hPa Calm     87% 0 mm
00:39 21.2 °C 18.9 °C 1018.2 hPa Calm     87% 0 mm
00:44 21.1 °C 18.8 °C 1018.2 hPa Calm     87% 0 mm
00:49 21.1 °C 18.8 °C 1018.2 hPa Calm     87% 0 mm
00:54 20.9 °C 18.7 °C 1018.2 hPa Calm     87% 0 mm
00:59 20.8 °C 18.8 °C 1018.2 hPa Calm     88% 0 mm
01:04 20.7 °C 18.5 °C 1018.2 hPa Calm     87% 0 mm
01:09 20.6 °C 18.5 °C 1018.2 hPa Calm     88% 0 mm
01:14 20.4 °C 18.4 °C 1018.2 hPa Calm     88% 0 mm
01:19 20.3 °C 18.2 °C 1018.2 hPa Calm     88% 0 mm
01:24 20.2 °C 18.1 °C 1018.2 hPa Calm     88% 0 mm
01:29 20.1 °C 18 °C 1018.2 hPa Calm     88% 0 mm
01:34 20 °C 18.1 °C 1018.2 hPa Calm     89% 0 mm
01:39 19.9 °C 18.1 °C 1018.2 hPa Calm     89% 0 mm
01:44 20 °C 18.1 °C 1018.2 hPa Calm     89% 0 mm
01:49 19.9 °C 18.1 °C 1018.2 hPa Calm     89% 0 mm
01:54 19.9 °C 18.1 °C 1018.2 hPa Calm     89% 0 mm
01:59 19.8 °C 17.9 °C 1018.2 hPa Calm     89% 0 mm
02:04 19.8 °C 17.9 °C 1018.2 hPa Calm     89% 0 mm
02:09 19.8 °C 18.2 °C 1017.8 hPa Calm     90% 0 mm
02:14 19.8 °C 18.2 °C 1017.8 hPa Calm     90% 0 mm
02:19 19.8 °C 18.2 °C 1017.8 hPa Calm     90% 0 mm
02:24 19.8 °C 18.1 °C 1017.8 hPa Calm     90% 0 mm
02:29 19.7 °C 18 °C 1017.8 hPa Calm     90% 0 mm
02:34 19.7 °C 18 °C 1017.8 hPa Calm     90% 0 mm
02:39 19.6 °C 17.9 °C 1017.8 hPa Calm     90% 0 mm
02:44 19.5 °C 17.8 °C 1017.8 hPa Calm     90% 0 mm
02:49 19.4 °C 17.8 °C 1017.8 hPa Calm     90% 0 mm
02:54 19.4 °C 17.8 °C 1017.8 hPa Calm     90% 0 mm
02:59 19.4 °C 17.7 °C 1017.8 hPa Calm     90% 0 mm
03:04 19.4 °C 17.9 °C 1017.8 hPa Calm     91% 0 mm
03:09 19.4 °C 17.9 °C 1017.8 hPa Calm     91% 0 mm
03:14 19.4 °C 17.9 °C 1017.8 hPa Calm     91% 0 mm
03:19 19.4 °C 17.9 °C 1017.8 hPa Calm     91% 0 mm
03:24 19.3 °C 17.8 °C 1017.8 hPa Calm     91% 0 mm
03:29 19.3 °C 17.8 °C 1017.8 hPa Calm     91% 0 mm
03:34 19.2 °C 17.7 °C 1017.8 hPa Calm     91% 0 mm
03:39 19.1 °C 17.4 °C 1017.8 hPa Calm     90% 0 mm
03:44 19.1 °C 17.6 °C 1017.8 hPa Calm     91% 0 mm
03:49 19.1 °C 17.6 °C 1017.5 hPa Calm     91% 0 mm
03:54 18.9 °C 17.4 °C 1017.5 hPa Calm     91% 0 mm
03:59 19.1 °C 17.6 °C 1017.5 hPa Calm     91% 0 mm
04:04 19.1 °C 17.6 °C 1017.5 hPa Calm     91% 0 mm
04:09 19 °C 17.5 °C 1017.5 hPa Calm     91% 0 mm
04:14 19.1 °C 17.6 °C 1017.5 hPa Calm     91% 0 mm
04:19 19 °C 17.5 °C 1017.5 hPa Calm     91% 0 mm
04:24 18.9 °C 17.4 °C 1017.5 hPa Calm     91% 0 mm
04:29 18.9 °C 17.4 °C 1017.5 hPa Calm     91% 0 mm
04:34 18.8 °C 17.3 °C 1017.5 hPa Calm     91% 0 mm
04:39 18.8 °C 17.3 °C 1017.5 hPa Calm     91% 0 mm
04:44 18.8 °C 17.3 °C 1017.5 hPa Calm     91% 0 mm
04:49 18.7 °C 17.2 °C 1017.5 hPa Calm     91% 0 mm
04:54 18.6 °C 17.1 °C 1017.5 hPa Calm     91% 0 mm
04:59 18.5 °C 17 °C 1017.5 hPa Calm     91% 0 mm
05:04 18.5 °C 17 °C 1017.5 hPa Calm     91% 0 mm
05:09 18.4 °C 16.9 °C 1017.5 hPa Calm     91% 0 mm
05:14 18.4 °C 16.9 °C 1017.5 hPa Calm     91% 0 mm
05:19 18.4 °C 17.1 °C 1017.5 hPa Calm     92% 0 mm
05:24 18.5 °C 17 °C 1017.5 hPa Calm     91% 0 mm
05:29 18.5 °C 17 °C 1017.5 hPa Calm     91% 0 mm
05:34 18.4 °C 16.9 °C 1017.5 hPa Calm     91% 0 mm
05:39 18.3 °C 16.8 °C 1017.8 hPa Calm     91% 0 mm
05:44 18.3 °C 17 °C 1017.8 hPa Calm     92% 0 mm
05:49 18.3 °C 17 °C 1017.8 hPa Calm     92% 0 mm
05:54 18.3 °C 17 °C 1017.8 hPa Calm     92% 0 mm
05:59 18.3 °C 17 °C 1017.8 hPa Calm     92% 0 mm
06:04 18.3 °C 16.9 °C 1017.8 hPa Calm     92% 0 mm
06:09 18.2 °C 16.9 °C 1017.8 hPa Calm     92% 0 mm
06:14 18.2 °C 16.9 °C 1017.8 hPa Calm     92% 0 mm
06:19 18.2 °C 16.9 °C 1017.8 hPa Calm     92% 0 mm
06:24 18.2 °C 16.8 °C 1017.8 hPa Calm     92% 0 mm
06:29 18.1 °C 16.8 °C 1017.8 hPa Calm     92% 0 mm
06:39 18.2 °C 16.9 °C 1018.2 hPa Calm     92% 0 mm
06:44 18.2 °C 16.9 °C 1018.2 hPa Calm     92% 0 mm
06:49 18.3 °C 16.9 °C 1018.2 hPa Calm     92% 0 mm
06:54 18.3 °C 17 °C 1018.2 hPa Calm     92% 0 mm
06:59 18.4 °C 17.1 °C 1018.2 hPa Calm     92% 0 mm
07:04 18.4 °C 17.1 °C 1018.2 hPa Calm     92% 0 mm
07:09 18.5 °C 17.2 °C 1018.2 hPa Calm     92% 0 mm
07:14 18.4 °C 17.1 °C 1018.5 hPa Calm     92% 0 mm
07:19 18.3 °C 17 °C 1018.5 hPa Calm     92% 0 mm
07:24 18.3 °C 17 °C 1018.5 hPa Calm     92% 0 mm
07:29 18.3 °C 16.9 °C 1018.5 hPa Calm     92% 0 mm
07:34 18.4 °C 17.1 °C 1018.5 hPa Calm     92% 0 mm
07:39 18.6 °C 17.2 °C 1018.5 hPa Calm     92% 0 mm
07:44 18.7 °C 17.4 °C 1018.5 hPa Calm     92% 0 mm
07:49 18.9 °C 17.6 °C 1018.5 hPa Calm     92% 0 mm
07:54 19.1 °C 17.8 °C 1018.5 hPa Calm     92% 0 mm
07:59 19.2 °C 17.7 °C 1018.5 hPa Calm     91% 0 mm
08:04 19.4 °C 17.9 °C 1018.8 hPa Calm     91% 0 mm
08:09 19.6 °C 17.9 °C 1018.5 hPa Calm     90% 0 mm
08:14 19.8 °C 18.1 °C 1018.5 hPa Calm     90% 0 mm
08:19 20 °C 18.1 °C 1018.8 hPa Calm     89% 0 mm
08:24 20.2 °C 18.3 °C 1018.8 hPa Calm     89% 0 mm
08:29 20.5 °C 18.4 °C 1018.8 hPa Calm     88% 0 mm
08:34 20.7 °C 18.5 °C 1018.8 hPa Calm     87% 0 mm
08:39 21.1 °C 18.7 °C 1018.8 hPa Calm     86% 0 mm
08:44 21.6 °C 18.7 °C 1018.8 hPa Calm     84% 0 mm
08:49 21.9 °C 18.9 °C 1018.8 hPa Calm     83% 0 mm
08:54 22.3 °C 19.1 °C 1018.8 hPa Calm     82% 0 mm
08:59 22.6 °C 19.2 °C 1018.8 hPa Calm     81% 0 mm
09:04 22.8 °C 18.9 °C 1018.8 hPa Calm     79% 0 mm
09:09 22.9 °C 18.9 °C 1018.5 hPa Calm     78% 0 mm
09:14 23.1 °C 19.3 °C 1018.5 hPa Calm     79% 0 mm
09:19 23.3 °C 19.3 °C 1018.5 hPa Calm     78% 0 mm
09:24 23.5 °C 19.4 °C 1018.8 hPa Calm     78% 0 mm
09:29 23.7 °C 19.4 °C 1018.8 hPa Calm     77% 0 mm
09:34 24.1 °C 19.8 °C 1018.8 hPa Calm     77% 0 mm
09:39 24.6 °C 19.9 °C 1018.8 hPa Calm     75% 0 mm
09:44 24.7 °C 19.7 °C 1018.5 hPa Calm     74% 0 mm
09:49 25 °C 19.8 °C 1018.8 hPa Calm     73% 0 mm
09:54 25.2 °C 19.8 °C 1018.8 hPa Calm     72% 0 mm
09:59 25.4 °C 20.2 °C 1018.5 hPa Calm     73% 0 mm
10:04 26.1 °C 20.2 °C 1018.5 hPa Calm     70% 0 mm
10:09 26.2 °C 20.3 °C 1018.5 hPa Calm     70% 0 mm
10:14 26.5 °C 20.6 °C 1018.5 hPa Calm     70% 0 mm
10:19 27 °C 20.6 °C 1018.5 hPa Calm     68% 0 mm
10:24 27.4 °C 20.7 °C 1018.5 hPa Calm     67% 0 mm
10:29 27.6 °C 20.6 °C 1018.5 hPa SE 1.6 km/h 6.4 km/h 66% 0 mm
10:34 27.8 °C 20.8 °C 1018.5 hPa SE 1.6 km/h 8 km/h 66% 0 mm
10:39 27.8 °C 20.7 °C 1018.5 hPa SE 3.2 km/h 8 km/h 65% 0 mm
10:44 28.1 °C 20.9 °C 1018.5 hPa SSE 3.2 km/h 6.4 km/h 65% 0 mm
10:49 28.4 °C 20.9 °C 1018.5 hPa SSE 4.8 km/h 4.8 km/h 64% 0 mm
10:54 28.7 °C 21.2 °C 1018.5 hPa SSE 3.2 km/h 4.8 km/h 64% 0 mm
10:59 28.9 °C 20.4 °C 1018.5 hPa ENE 4.8 km/h 9.7 km/h 60% 0 mm
11:04 28.9 °C 20.7 °C 1018.2 hPa SSE 4.8 km/h 6.4 km/h 61% 0 mm
11:09 29 °C 20.4 °C 1018.2 hPa ESE 3.2 km/h 8 km/h 60% 0 mm
11:14 29.3 °C 20.7 °C 1018.2 hPa SE 4.8 km/h 8 km/h 60% 0 mm
11:19 29.5 °C 20.7 °C 1018.2 hPa East 3.2 km/h 9.7 km/h 59% 0 mm
11:24 29.7 °C 20.8 °C 1018.2 hPa ESE 3.2 km/h 9.7 km/h 59% 0 mm
11:29 29.9 °C 21.3 °C 1018.2 hPa ESE 1.6 km/h 6.4 km/h 60% 0 mm
11:34 30.3 °C 20.6 °C 1018.2 hPa Calm     56% 0 mm
11:39 30.1 °C 20.3 °C 1018.2 hPa SSE 1.6 km/h 9.7 km/h 56% 0 mm
11:44 30.3 °C 20.8 °C 1018.2 hPa SE 3.2 km/h 11.3 km/h 57% 0 mm
11:49 30.2 °C 21.1 °C 1017.8 hPa SE 3.2 km/h 11.3 km/h 58% 0 mm
11:54 30.2 °C 21.3 °C 1017.8 hPa SE 1.6 km/h 6.4 km/h 59% 0 mm
11:59 30.5 °C 20.7 °C 1017.8 hPa South 1.6 km/h 6.4 km/h 56% 0 mm
12:04 31.1 °C 21.2 °C 1017.8 hPa South 3.2 km/h 8 km/h 56% 0 mm
12:09 30.7 °C 20.1 °C 1017.8 hPa South 3.2 km/h 11.3 km/h 53% 0 mm
12:14 30.4 °C 20.7 °C 1017.8 hPa SE 1.6 km/h 4.8 km/h 56% 0 mm
12:19 30.6 °C 20.8 °C 1017.8 hPa Calm   9.7 km/h 56% 0 mm
12:24 30.9 °C 20.6 °C 1017.8 hPa ESE 3.2 km/h 9.7 km/h 54% 0 mm
12:29 31 °C 20.6 °C 1017.8 hPa South 3.2 km/h 9.7 km/h 54% 0 mm
12:34 30.9 °C 20.8 °C 1017.8 hPa WNW 1.6 km/h 6.4 km/h 55% 0 mm
12:39 31.2 °C 21.1 °C 1017.8 hPa SSE 1.6 km/h 8 km/h 55% 0 mm
12:44 31.4 °C 20.7 °C 1017.8 hPa East 1.6 km/h 8 km/h 53% 0 mm
12:49 31.8 °C 21.3 °C 1017.5 hPa East 3.2 km/h 9.7 km/h 54% 0 mm
12:54 31.6 °C 20.8 °C 1017.5 hPa ENE 1.6 km/h 11.3 km/h 53% 0 mm
12:59 31.3 °C 20.8 °C 1017.5 hPa ENE 3.2 km/h 11.3 km/h 54% 0 mm
13:04 31.7 °C 20.9 °C 1017.5 hPa East 3.2 km/h 11.3 km/h 53% 0 mm
13:09 31.8 °C 21.4 °C 1017.5 hPa SE 4.8 km/h 11.3 km/h 54% 0 mm
13:14 31.9 °C 20.2 °C 1017.5 hPa SE 4.8 km/h 11.3 km/h 50% 0 mm
13:19 31.8 °C 21.3 °C 1017.5 hPa Calm   8 km/h 54% 0 mm
13:24 31.9 °C 21.7 °C 1017.5 hPa East 1.6 km/h 11.3 km/h 55% 0 mm
13:29 31.8 °C 21.9 °C 1017.2 hPa Calm   4.8 km/h 56% 0 mm
13:34 32.2 °C 21.4 °C 1017.2 hPa SE 3.2 km/h 8 km/h 53% 0 mm
13:39 32.1 °C 21.6 °C 1016.8 hPa East 8 km/h 14.5 km/h 54% 0 mm
13:44 31.8 °C 21.4 °C 1016.8 hPa ESE 6.4 km/h 12.9 km/h 54% 0 mm
13:49 31.8 °C 21.1 °C 1016.8 hPa ENE 6.4 km/h 14.5 km/h 53% 0 mm
13:54 32.1 °C 20.7 °C 1016.8 hPa ENE 4.8 km/h 14.5 km/h 51% 0 mm
13:59 32.2 °C 20.1 °C 1016.8 hPa SSE 3.2 km/h 11.3 km/h 49% 0 mm
14:04 32.6 °C 20.4 °C 1016.8 hPa South 4.8 km/h 11.3 km/h 49% 0 mm
14:09 32.4 °C 20.7 °C 1016.8 hPa South 4.8 km/h 11.3 km/h 50% 0 mm
14:14 32.3 °C 20.8 °C 1016.8 hPa SSE 4.8 km/h 11.3 km/h 51% 0 mm
14:19 32.3 °C 19.9 °C 1016.5 hPa SSW 1.6 km/h 9.7 km/h 48% 0 mm
14:24 32.3 °C 19.6 °C 1016.5 hPa SSE 3.2 km/h 8 km/h 47% 0 mm
14:29 31.9 °C 19.6 °C 1016.5 hPa Calm   8 km/h 48% 0 mm
14:34 32.1 °C 20.3 °C 1016.5 hPa SSE 3.2 km/h 4.8 km/h 50% 0 mm
14:39 32 °C 20.6 °C 1016.5 hPa ENE 4.8 km/h 8 km/h 51% 0 mm
14:49 32.4 °C 20.7 °C 1016.1 hPa East 3.2 km/h 12.9 km/h 50% 0 mm
14:54 32.4 °C 20.9 °C 1016.1 hPa East 3.2 km/h 12.9 km/h 51% 0 mm
14:59 32.5 °C 21.1 °C 1016.1 hPa East 3.2 km/h 9.7 km/h 51% 0 mm
15:04 32.3 °C 21.2 °C 1016.1 hPa SSE 3.2 km/h 9.7 km/h 52% 0 mm
15:09 32.2 °C 20.4 °C 1016.1 hPa SSE 4.8 km/h 11.3 km/h 50% 0 mm
15:14 31.9 °C 20.8 °C 1015.8 hPa South 4.8 km/h 11.3 km/h 52% 0 mm
15:19 31.9 °C 20.2 °C 1015.8 hPa Calm   6.4 km/h 50% 0 mm
15:24 32.2 °C 20.7 °C 1015.8 hPa ENE 3.2 km/h 12.9 km/h 51% 0 mm
15:29 32.2 °C 20.7 °C 1015.8 hPa ENE 4.8 km/h 12.9 km/h 51% 0 mm
15:34 32.1 °C 20.4 °C 1015.8 hPa Calm   6.4 km/h 50% 0 mm
15:39 32.2 °C 20.1 °C 1015.8 hPa Calm     49% 0 mm
15:44 32.4 °C 20.7 °C 1015.8 hPa Calm     50% 0 mm
15:49 32.7 °C 20.6 °C 1015.8 hPa East 3.2 km/h 8 km/h 49% 0 mm
15:54 32.5 °C 20.4 °C 1015.8 hPa ESE 3.2 km/h 8 km/h 49% 0 mm
15:59 32.3 °C 19.9 °C 1015.5 hPa SSE 3.2 km/h 8 km/h 48% 0 mm
16:04 32.2 °C 20.1 °C 1015.5 hPa East 4.8 km/h 8 km/h 49% 0 mm
16:09 32.3 °C 19.9 °C 1015.5 hPa NE 6.4 km/h 11.3 km/h 48% 0 mm
16:14 32.1 °C 19.4 °C 1015.5 hPa Calm   9.7 km/h 47% 0 mm
16:19 32.3 °C 19.6 °C 1015.5 hPa ENE 6.4 km/h 12.9 km/h 47% 0 mm
16:24 32.3 °C 19.9 °C 1015.5 hPa ENE 6.4 km/h 12.9 km/h 48% 0 mm
16:29 32.2 °C 19.4 °C 1015.5 hPa East 4.8 km/h 12.9 km/h 47% 0 mm
16:34 32.2 °C 19.4 °C 1015.5 hPa SE 3.2 km/h 8 km/h 47% 0 mm
16:39 32.4 °C 20.3 °C 1015.5 hPa ESE 3.2 km/h 9.7 km/h 49% 0 mm
16:44 32.5 °C 19.4 °C 1015.5 hPa Calm   8 km/h 46% 0 mm
16:54 32.6 °C 18.7 °C 1015.5 hPa ENE 4.8 km/h 11.3 km/h 44% 0 mm
16:59 32.7 °C 18.4 °C 1015.5 hPa SSE 3.2 km/h 8 km/h 43% 0 mm
17:04 32.7 °C 18.4 °C 1015.5 hPa East 3.2 km/h 8 km/h 43% 0 mm
17:09 32.6 °C 17.6 °C 1015.1 hPa ESE 1.6 km/h 11.3 km/h 41% 0 mm
17:14 32.3 °C 18.5 °C 1015.1 hPa SSE 6.4 km/h 11.3 km/h 44% 0 mm
17:19 32.3 °C 19.2 °C 1015.1 hPa ESE 6.4 km/h 8 km/h 46% 0 mm
17:24 32.2 °C 19.1 °C 1015.1 hPa ESE 3.2 km/h 9.7 km/h 46% 0 mm
17:29 32.1 °C 17.6 °C 1015.1 hPa ESE 4.8 km/h 9.7 km/h 42% 0 mm
17:34 32.1 °C 18.3 °C 1015.1 hPa SE 3.2 km/h 8 km/h 44% 0 mm
17:39 32.1 °C 19.3 °C 1015.1 hPa Calm   4.8 km/h 47% 0 mm
17:44 31.7 °C 20.3 °C 1015.1 hPa East 1.6 km/h 11.3 km/h 51% 0 mm
17:49 31.2 °C 20.2 °C 1015.1 hPa ENE 3.2 km/h 11.3 km/h 52% 0 mm
17:54 31.1 °C 20.3 °C 1015.1 hPa ENE 3.2 km/h 9.7 km/h 53% 0 mm
17:59 30.8 °C 20.4 °C 1015.1 hPa NE 6.4 km/h 14.5 km/h 54% 0 mm
18:04 30.7 °C 20.3 °C 1015.1 hPa NE 1.6 km/h 11.3 km/h 54% 0 mm
18:09 30.5 °C 20.4 °C 1015.1 hPa NE 1.6 km/h 11.3 km/h 55% 0 mm
18:14 30.4 °C 20.3 °C 1014.8 hPa NE 3.2 km/h 11.3 km/h 55% 0 mm
18:19 30.3 °C 20.6 °C 1015.1 hPa NE 1.6 km/h 8 km/h 56% 0 mm
18:24 30.2 °C 20.4 °C 1015.1 hPa NE 4.8 km/h 12.9 km/h 56% 0 mm
18:29 30.1 °C 20.9 °C 1015.1 hPa NE 4.8 km/h 12.9 km/h 58% 0 mm
18:34 29.8 °C 21.5 °C 1015.1 hPa NE 6.4 km/h 16.1 km/h 61% 0 mm
18:39 29.6 °C 21.8 °C 1015.1 hPa ENE 8 km/h 16.1 km/h 63% 0 mm
18:44 29.3 °C 22.1 °C 1015.1 hPa ENE 6.4 km/h 12.9 km/h 65% 0 mm
18:49 29.1 °C 22.1 °C 1015.1 hPa ENE 6.4 km/h 11.3 km/h 66% 0 mm
18:54 28.8 °C 22.1 °C 1015.1 hPa ENE 8 km/h 11.3 km/h 67% 0 mm
18:59 28.6 °C 21.9 °C 1015.1 hPa NE 6.4 km/h 16.1 km/h 67% 0 mm
19:04 28.4 °C 21.9 °C 1015.1 hPa ENE 6.4 km/h 16.1 km/h 68% 0 mm
19:09 28.3 °C 21.8 °C 1015.1 hPa NE 8 km/h 16.1 km/h 68% 0 mm
19:14 28.2 °C 21.7 °C 1014.8 hPa NE 4.8 km/h 14.5 km/h 68% 0 mm
19:19 28 °C 21.8 °C 1014.8 hPa ENE 11.3 km/h 14.5 km/h 69% 0 mm
19:24 27.9 °C 21.7 °C 1014.8 hPa ENE 6.4 km/h 14.5 km/h 69% 0 mm
19:29 27.7 °C 21.8 °C 1014.8 hPa NE 6.4 km/h 14.5 km/h 70% 0 mm
19:34 27.6 °C 21.6 °C 1014.8 hPa NE 4.8 km/h 9.7 km/h 70% 0 mm
19:39 27.3 °C 21.6 °C 1015.1 hPa NE 1.6 km/h 8 km/h 71% 0 mm
19:54 26.9 °C 21.4 °C 1015.1 hPa NE 4.8 km/h 8 km/h 72% 0 mm
19:59 26.8 °C 21.6 °C 1015.1 hPa NE 1.6 km/h 8 km/h 73% 0 mm
20:04 26.7 °C 21.4 °C 1015.1 hPa NE 1.6 km/h 6.4 km/h 73% 0 mm
20:09 26.6 °C 21.3 °C 1015.1 hPa NE 1.6 km/h 6.4 km/h 73% 0 mm
20:14 26.4 °C 21.4 °C 1015.1 hPa NE 1.6 km/h 6.4 km/h 74% 0 mm
20:19 26.3 °C 21.3 °C 1015.1 hPa Calm   6.4 km/h 74% 0 mm
20:24 26.2 °C 21.2 °C 1015.1 hPa NE 6.4 km/h 6.4 km/h 74% 0 mm
20:29 26.2 °C 21.2 °C 1015.5 hPa Calm   6.4 km/h 74% 0 mm
20:34 26.1 °C 21.1 °C 1015.1 hPa ENE 4.8 km/h 4.8 km/h 74% 0 mm
20:39 26 °C 21 °C 1015.1 hPa Calm   4.8 km/h 74% 0 mm
20:44 25.9 °C 21.2 °C 1015.5 hPa East 4.8 km/h 6.4 km/h 75% 0 mm
20:49 25.8 °C 21.1 °C 1015.5 hPa Calm   4.8 km/h 75% 0 mm
20:54 25.8 °C 21 °C 1015.1 hPa Calm   4.8 km/h 75% 0 mm
20:59 25.6 °C 20.8 °C 1015.1 hPa Calm   4.8 km/h 75% 0 mm
21:04 25.5 °C 20.9 °C 1015.1 hPa Calm   4.8 km/h 76% 0 mm
21:09 25.4 °C 20.9 °C 1015.1 hPa Calm   4.8 km/h 76% 0 mm
21:14 25.3 °C 20.8 °C 1015.1 hPa Calm     76% 0 mm
21:19 25.2 °C 20.7 °C 1015.1 hPa Calm     76% 0 mm
21:24 25.2 °C 20.6 °C 1015.1 hPa Calm     76% 0 mm
21:29 25.1 °C 20.7 °C 1015.1 hPa Calm     77% 0 mm
21:34 25 °C 20.7 °C 1015.1 hPa Calm     77% 0 mm
21:39 24.9 °C 20.6 °C 1015.1 hPa Calm     77% 0 mm
21:44 24.8 °C 20.5 °C 1015.1 hPa Calm   3.2 km/h 77% 0 mm
21:49 24.8 °C 20.5 °C 1015.1 hPa Calm     77% 0 mm
21:54 24.8 °C 20.4 °C 1015.1 hPa Calm     77% 0 mm
21:59 24.7 °C 20.4 °C 1014.8 hPa Calm     77% 0 mm
22:04 24.6 °C 20.3 °C 1014.8 hPa Calm     77% 0 mm
22:09 24.4 °C 20.2 °C 1015.1 hPa Calm     77% 0 mm
22:14 24.3 °C 20.1 °C 1014.8 hPa Calm     77% 0 mm
22:19 24.2 °C 20.2 °C 1014.8 hPa Calm     78% 0 mm
22:24 24.1 °C 20.1 °C 1014.8 hPa Calm     78% 0 mm
22:29 24 °C 19.9 °C 1014.8 hPa Calm     78% 0 mm
22:34 23.9 °C 19.8 °C 1014.8 hPa Calm     78% 0 mm
22:44 23.7 °C 19.9 °C 1014.8 hPa Calm     79% 0 mm
22:49 23.7 °C 19.8 °C 1015.1 hPa Calm     79% 0 mm
22:54 23.6 °C 19.7 °C 1014.8 hPa Calm     79% 0 mm
22:59 23.5 °C 19.7 °C 1014.8 hPa Calm     79% 0 mm
23:04 23.4 °C 19.8 °C 1014.8 hPa Calm     80% 0 mm
23:09 23.3 °C 19.7 °C 1014.8 hPa Calm     80% 0 mm
23:19 23.2 °C 19.7 °C 1014.8 hPa Calm     81% 0 mm
23:34 23 °C 19.6 °C 1014.8 hPa Calm     81% 0 mm
23:39 22.9 °C 19.4 °C 1014.8 hPa Calm     81% 0 mm
23:44 22.8 °C 19.6 °C 1014.8 hPa Calm     82% 0 mm
23:49 22.8 °C 19.6 °C 1014.8 hPa Calm     82% 0 mm
23:54 22.7 °C 19.5 °C 1014.8 hPa Calm     82% 0 mm
23:59 22.6 °C 19.4 °C 1014.8 hPa Calm     82% 0 mm
Buffalo, New York, USA
Compliments of Weather Underground - 2.25 mb